Time;durP1;ratioP1;P1;durP2;ratioP2;P2;SDS_P1;SDS_P2;PMS_P1;PMS_P2;Temp;Humidity;BMP_temperature;BMP_pressure;BME280_temperature;BME280_humidity;BME280_pressure;Samples;Min_cycle;Max_cycle;Signal;HPM_P1;HPM_P2
2021/06/01 00:01:41;;;;;;;3.90;2.55;;;;;;;;;;5055280;28;20183;-77
2021/06/01 00:04:08;;;;;;;3.78;3.15;;;;;;;;;;5041716;28;20216;-77
2021/06/01 00:06:35;;;;;;;4.93;2.92;;;;;;;;;;5039507;28;20181;-78
2021/06/01 00:09:01;;;;;;;3.85;3.45;;;;;;;;;;5039462;28;20197;-78
2021/06/01 00:11:27;;;;;;;3.33;3.00;;;;;;;;;;5042777;28;20193;-78
2021/06/01 00:13:53;;;;;;;2.83;2.53;;;;;;;;;;5055843;28;20260;-78
2021/06/01 00:16:19;;;;;;;2.88;2.58;;;;;;;;;;5054595;28;20467;-78
2021/06/01 00:18:46;;;;;;;5.72;3.88;;;;;;;;;;5045318;28;20186;-78
2021/06/01 00:21:12;;;;;;;2.63;2.40;;;;;;;;;;5050503;28;20448;-78
2021/06/01 00:23:38;;;;;;;6.45;2.80;;;;;;;;;;5051895;28;20192;-78
2021/06/01 00:26:08;;;;;;;3.90;3.10;;;;;;;;;;5066948;28;20186;-78
2021/06/01 00:28:35;;;;;;;5.28;3.78;;;;;;;;;;5042188;28;20177;-78
2021/06/01 00:31:01;;;;;;;3.10;2.75;;;;;;;;;;5061588;28;20630;-78
2021/06/01 00:33:28;;;;;;;4.82;3.55;;;;;;;;;;5057718;28;20189;-78
2021/06/01 00:35:54;;;;;;;3.30;2.90;;;;;;;;;;5066841;28;20185;-78
2021/06/01 00:38:20;;;;;;;7.10;3.30;;;;;;;;;;5058949;28;20183;-77
2021/06/01 00:40:46;;;;;;;3.43;2.90;;;;;;;;;;5065545;28;20180;-79
2021/06/01 00:43:12;;;;;;;2.70;2.50;;;;;;;;;;5047813;28;20481;-79
2021/06/01 00:45:38;;;;;;;3.85;3.47;;;;;;;;;;5069459;28;20217;-78
2021/06/01 00:48:04;;;;;;;6.53;3.30;;;;;;;;;;5053148;28;20189;-78
2021/06/01 00:50:30;;;;;;;5.07;3.05;;;;;;;;;;5058633;28;20545;-78
2021/06/01 00:52:57;;;;;;;3.63;3.00;;;;;;;;;;5060258;28;20173;-78
2021/06/01 00:55:24;;;;;;;3.90;3.20;;;;;;;;;;5044879;28;20724;-78
2021/06/01 00:57:50;;;;;;;6.13;3.22;;;;;;;;;;5058804;28;20214;-78
2021/06/01 01:03:03;;;;;;;3.97;2.97;;;;;;;;;;5031714;28;20187;-78
2021/06/01 01:05:36;;;;;;;3.55;3.25;;;;;;;;;;5017861;28;20220;-78
2021/06/01 01:08:08;;;;;;;3.92;3.40;;;;;;;;;;5033726;28;20188;-78
2021/06/01 01:10:36;;;;;;;3.42;3.08;;;;;;;;;;5010791;28;20174;-78
2021/06/01 01:13:05;;;;;;;8.57;3.70;;;;;;;;;;5006967;28;20278;-78
2021/06/01 01:15:31;;;;;;;3.50;3.10;;;;;;;;;;5023410;28;20262;-77
2021/06/01 01:17:58;;;;;;;4.78;3.33;;;;;;;;;;5034286;28;20290;-78
2021/06/01 01:20:37;;;;;;;3.05;2.72;;;;;;;;;;5034574;28;20658;-78
2021/06/01 01:23:10;;;;;;;3.88;3.10;;;;;;;;;;5008739;28;20718;-78
2021/06/01 01:25:43;;;;;;;7.80;3.55;;;;;;;;;;5029139;28;20212;-79
2021/06/01 01:28:22;;;;;;;4.10;3.65;;;;;;;;;;5006391;28;20676;-78
2021/06/01 01:30:50;;;;;;;5.32;3.10;;;;;;;;;;5023194;28;20175;-78
2021/06/01 01:33:21;;;;;;;3.58;3.30;;;;;;;;;;5023450;28;20413;-78
2021/06/01 01:35:49;;;;;;;8.30;3.67;;;;;;;;;;5018419;28;20190;-78
2021/06/01 01:38:16;;;;;;;4.38;3.33;;;;;;;;;;5023156;28;20178;-78
2021/06/01 01:40:45;;;;;;;4.00;2.83;;;;;;;;;;5051804;28;20188;-78
2021/06/01 01:43:15;;;;;;;4.15;2.92;;;;;;;;;;5042659;28;20658;-78
2021/06/01 01:45:44;;;;;;;3.72;3.15;;;;;;;;;;5048870;28;20202;-79
2021/06/01 01:51:11;;;;;;;4.88;3.55;;;;;;;;;;5053066;28;20730;-78
2021/06/01 01:53:37;;;;;;;4.20;2.85;;;;;;;;;;5056315;28;20209;-78
2021/06/01 01:56:03;;;;;;;4.35;3.10;;;;;;;;;;5069264;28;20230;-78
2021/06/01 01:58:29;;;;;;;5.90;3.75;;;;;;;;;;5043726;28;20188;-78
2021/06/01 02:00:55;;;;;;;3.88;2.95;;;;;;;;;;5041773;28;20217;-78
2021/06/01 02:03:21;;;;;;;3.70;3.40;;;;;;;;;;5041540;28;20183;-78
2021/06/01 02:05:47;;;;;;;3.85;3.55;;;;;;;;;;5042205;28;20197;-78
2021/06/01 02:08:13;;;;;;;5.22;3.60;;;;;;;;;;5047640;28;20237;-78
2021/06/01 02:10:39;;;;;;;3.97;3.55;;;;;;;;;;5045377;28;20208;-79
2021/06/01 02:13:05;;;;;;;4.30;4.00;;;;;;;;;;5046640;28;20186;-78
2021/06/01 02:15:31;;;;;;;3.95;3.55;;;;;;;;;;5038910;28;20209;-78
2021/06/01 02:17:58;;;;;;;4.55;3.30;;;;;;;;;;5038373;28;20190;-78
2021/06/01 02:20:24;;;;;;;3.85;3.55;;;;;;;;;;5054367;28;20269;-78
2021/06/01 02:25:42;;;;;;;4.72;3.67;;;;;;;;;;5047500;28;20231;-79
2021/06/01 02:28:15;;;;;;;3.45;3.13;;;;;;;;;;5038410;28;20202;-79
2021/06/01 02:31:02;;;;;;;5.28;3.63;;;;;;;;;;5037303;28;20739;-78
2021/06/01 02:33:30;;;;;;;4.50;3.70;;;;;;;;;;5030517;28;20520;-79
2021/06/01 02:35:56;;;;;;;7.13;3.50;;;;;;;;;;5047829;28;20182;-79
2021/06/01 02:38:22;;;;;;;4.53;3.30;;;;;;;;;;5044068;28;20204;-78
2021/06/01 02:40:49;;;;;;;3.85;3.55;;;;;;;;;;5037799;28;20212;-78
2021/06/01 02:43:15;;;;;;;4.18;3.78;;;;;;;;;;5034244;28;20191;-78
2021/06/01 02:45:42;;;;;;;4.00;3.55;;;;;;;;;;5036865;28;20229;-79
2021/06/01 02:48:09;;;;;;;7.22;4.32;;;;;;;;;;5050214;28;20253;-79
2021/06/01 02:50:35;;;;;;;5.78;4.22;;;;;;;;;;5048250;28;20552;-79
2021/06/01 02:53:02;;;;;;;4.00;3.10;;;;;;;;;;5039018;28;20180;-80
2021/06/01 02:55:28;;;;;;;4.28;3.45;;;;;;;;;;5041568;28;20231;-79
2021/06/01 02:57:54;;;;;;;3.20;2.90;;;;;;;;;;5061327;28;20232;-79
2021/06/01 03:00:21;;;;;;;3.33;3.03;;;;;;;;;;5050166;28;20185;-79
2021/06/01 03:02:47;;;;;;;5.93;3.97;;;;;;;;;;5071852;28;20185;-78
2021/06/01 03:05:14;;;;;;;3.65;3.33;;;;;;;;;;5075199;28;20211;-78
2021/06/01 03:07:44;;;;;;;3.65;3.35;;;;;;;;;;5061565;28;20192;-78
2021/06/01 03:10:12;;;;;;;4.65;3.88;;;;;;;;;;5042300;28;20646;-79
2021/06/01 03:12:53;;;;;;;3.88;3.58;;;;;;;;;;5065636;28;20178;-79
2021/06/01 03:15:21;;;;;;;3.58;3.28;;;;;;;;;;5059574;28;20184;-79
2021/06/01 03:17:47;;;;;;;4.75;4.10;;;;;;;;;;5066912;28;20244;-79
2021/06/01 03:20:14;;;;;;;4.43;4.03;;;;;;;;;;5059173;28;20173;-78
2021/06/01 03:22:40;;;;;;;3.95;3.45;;;;;;;;;;5039796;28;20200;-78
2021/06/01 03:25:06;;;;;;;4.32;3.40;;;;;;;;;;5052396;28;20264;-78
2021/06/01 03:27:32;;;;;;;3.75;3.13;;;;;;;;;;5059145;28;20200;-79
2021/06/01 03:29:58;;;;;;;3.10;2.80;;;;;;;;;;5057723;28;20216;-79
2021/06/01 03:32:24;;;;;;;3.65;3.30;;;;;;;;;;5068514;28;20173;-79
2021/06/01 03:34:50;;;;;;;4.47;3.88;;;;;;;;;;5048641;28;20179;-79
2021/06/01 03:37:16;;;;;;;4.95;3.47;;;;;;;;;;5043077;28;20194;-79
2021/06/01 03:39:42;;;;;;;5.80;3.33;;;;;;;;;;5050324;28;20620;-79
2021/06/01 03:42:12;;;;;;;3.50;3.15;;;;;;;;;;5070640;28;20447;-79
2021/06/01 03:44:39;;;;;;;4.30;3.40;;;;;;;;;;5054001;28;20220;-79
2021/06/01 03:47:05;;;;;;;3.75;3.45;;;;;;;;;;5068018;28;20187;-79
2021/06/01 03:49:32;;;;;;;3.97;3.60;;;;;;;;;;5061104;28;20179;-79
2021/06/01 03:51:58;;;;;;;6.22;3.80;;;;;;;;;;5060399;28;20188;-78
2021/06/01 03:54:24;;;;;;;3.85;3.55;;;;;;;;;;5059050;28;20185;-78
2021/06/01 03:56:50;;;;;;;4.20;3.72;;;;;;;;;;5037612;28;20275;-79
2021/06/01 03:59:16;;;;;;;5.13;3.25;;;;;;;;;;5057808;28;20177;-79
2021/06/01 04:01:42;;;;;;;3.80;3.40;;;;;;;;;;5055805;28;20172;-79
2021/06/01 04:04:08;;;;;;;3.63;3.33;;;;;;;;;;5047588;28;20455;-79
2021/06/01 04:06:34;;;;;;;5.25;4.03;;;;;;;;;;5067102;28;20220;-78
2021/06/01 04:09:00;;;;;;;4.05;3.65;;;;;;;;;;5059483;28;20209;-78
2021/06/01 04:11:27;;;;;;;4.97;3.70;;;;;;;;;;5056179;28;20245;-79
2021/06/01 04:13:53;;;;;;;4.10;3.50;;;;;;;;;;5064181;28;20169;-79
2021/06/01 04:16:19;;;;;;;5.40;3.58;;;;;;;;;;5060604;28;20184;-79
2021/06/01 04:18:45;;;;;;;6.30;3.10;;;;;;;;;;5063278;28;20186;-79
2021/06/01 04:21:11;;;;;;;3.30;3.10;;;;;;;;;;5070966;28;20489;-79
2021/06/01 04:23:37;;;;;;;4.13;3.72;;;;;;;;;;5055611;28;20178;-79
2021/06/01 04:26:03;;;;;;;4.30;3.60;;;;;;;;;;5066437;28;20538;-79
2021/06/01 04:28:29;;;;;;;4.33;3.70;;;;;;;;;;5045478;28;20434;-79
2021/06/01 04:30:55;;;;;;;5.47;3.60;;;;;;;;;;5047007;28;20456;-79
2021/06/01 04:33:21;;;;;;;4.43;3.67;;;;;;;;;;5037136;28;20217;-78
2021/06/01 04:35:47;;;;;;;5.57;3.75;;;;;;;;;;5070826;28;20435;-78
2021/06/01 04:38:13;;;;;;;3.20;2.90;;;;;;;;;;5056213;28;20655;-79
2021/06/01 04:40:39;;;;;;;3.45;3.13;;;;;;;;;;5035933;28;20177;-79
2021/06/01 04:43:05;;;;;;;4.53;4.13;;;;;;;;;;5055285;28;20200;-79
2021/06/01 04:45:31;;;;;;;4.23;3.43;;;;;;;;;;5066844;28;20205;-79
2021/06/01 04:47:58;;;;;;;4.35;3.30;;;;;;;;;;5053840;28;20478;-79
2021/06/01 04:50:24;;;;;;;3.78;3.47;;;;;;;;;;5056340;28;20232;-79
2021/06/01 04:52:50;;;;;;;4.25;3.45;;;;;;;;;;5061151;28;20194;-79
2021/06/01 04:55:16;;;;;;;3.97;3.37;;;;;;;;;;5053315;28;20201;-79
2021/06/01 04:57:42;;;;;;;5.68;3.80;;;;;;;;;;5053391;28;20479;-79
2021/06/01 05:00:09;;;;;;;4.90;3.75;;;;;;;;;;5068638;28;20754;-79
2021/06/01 05:02:35;;;;;;;3.97;3.60;;;;;;;;;;5057636;28;20189;-79
2021/06/01 05:05:01;;;;;;;4.38;3.63;;;;;;;;;;5065516;28;20208;-79
2021/06/01 05:07:27;;;;;;;6.50;4.38;;;;;;;;;;5059826;28;20180;-78
2021/06/01 05:10:00;;;;;;;6.07;4.17;;;;;;;;;;5047268;28;20231;-79
2021/06/01 05:12:26;;;;;;;5.90;4.13;;;;;;;;;;5067931;28;20446;-78
2021/06/01 05:14:52;;;;;;;3.42;3.13;;;;;;;;;;5055367;28;20189;-79
2021/06/01 05:17:18;;;;;;;5.33;3.40;;;;;;;;;;5041763;28;20641;-77
2021/06/01 05:19:44;;;;;;;9.23;7.30;;;;;;;;;;5054584;28;20426;-79
2021/06/01 05:22:10;;;;;;;3.30;2.97;;;;;;;;;;5053474;28;20436;-78
2021/06/01 05:24:36;;;;;;;5.28;4.20;;;;;;;;;;5058079;28;20235;-78
2021/06/01 05:27:02;;;;;;;5.03;3.25;;;;;;;;;;5053327;28;20193;-79
2021/06/01 05:29:28;;;;;;;6.97;4.15;;;;;;;;;;5059887;28;20204;-79
2021/06/01 05:32:04;;;;;;;5.20;3.28;;;;;;;;;;5067256;28;20172;-80
2021/06/01 05:34:30;;;;;;;5.35;3.15;;;;;;;;;;5063300;28;20175;-79
2021/06/01 05:36:56;;;;;;;4.53;3.97;;;;;;;;;;5041264;28;20193;-78
2021/06/01 05:39:22;;;;;;;5.32;4.13;;;;;;;;;;5070241;28;21441;-81
2021/06/01 05:41:48;;;;;;;7.13;3.97;;;;;;;;;;5040557;28;20204;-81
2021/06/01 05:44:14;;;;;;;4.75;3.40;;;;;;;;;;5064598;28;20216;-80
2021/06/01 05:46:40;;;;;;;6.28;3.45;;;;;;;;;;5064350;28;20177;-80
2021/06/01 05:49:06;;;;;;;5.00;4.15;;;;;;;;;;5056415;28;20205;-80
2021/06/01 05:51:35;;;;;;;3.97;3.43;;;;;;;;;;5059153;28;20186;-80
2021/06/01 05:54:02;;;;;;;6.70;4.05;;;;;;;;;;5055260;28;20436;-80
2021/06/01 05:56:29;;;;;;;4.28;3.80;;;;;;;;;;5057878;28;20217;-80
2021/06/01 05:58:55;;;;;;;4.45;4.03;;;;;;;;;;5066721;28;20200;-81
2021/06/01 06:01:21;;;;;;;4.22;3.55;;;;;;;;;;5059599;28;20189;-81
2021/06/01 06:03:47;;;;;;;4.60;3.45;;;;;;;;;;5062444;28;20180;-80
2021/06/01 06:06:14;;;;;;;4.43;4.03;;;;;;;;;;5061888;28;20634;-81
2021/06/01 06:08:40;;;;;;;6.05;3.78;;;;;;;;;;5062254;28;20669;-80
2021/06/01 06:11:06;;;;;;;3.92;3.25;;;;;;;;;;5044679;28;20169;-81
2021/06/01 06:13:32;;;;;;;3.50;3.20;;;;;;;;;;5048284;28;20724;-81
2021/06/01 06:15:59;;;;;;;5.13;3.40;;;;;;;;;;5049337;28;20206;-81
2021/06/01 06:18:30;;;;;;;4.93;3.42;;;;;;;;;;5062051;28;20492;-81
2021/06/01 06:21:00;;;;;;;6.38;3.30;;;;;;;;;;5057096;28;20190;-81
2021/06/01 06:23:26;;;;;;;5.03;3.85;;;;;;;;;;5059613;28;20182;-81
2021/06/01 06:25:52;;;;;;;6.15;3.05;;;;;;;;;;5058151;28;20234;-81
2021/06/01 06:28:18;;;;;;;10.00;3.30;;;;;;;;;;5042127;28;20202;-80
2021/06/01 06:30:44;;;;;;;4.15;3.28;;;;;;;;;;5055280;28;20181;-82
2021/06/01 06:33:10;;;;;;;4.03;2.92;;;;;;;;;;5063815;28;20174;-81
2021/06/01 06:35:36;;;;;;;4.43;3.10;;;;;;;;;;5045808;28;20192;-81
2021/06/01 06:38:02;;;;;;;5.70;3.30;;;;;;;;;;5061906;28;20897;-80
2021/06/01 06:40:28;;;;;;;4.47;3.47;;;;;;;;;;5062029;28;20445;-81
2021/06/01 06:42:54;;;;;;;5.03;2.90;;;;;;;;;;5061662;28;20620;-81
2021/06/01 06:45:23;;;;;;;9.23;4.10;;;;;;;;;;5066963;28;20204;-81
2021/06/01 06:50:17;;;;;;;5.20;2.88;;;;;;;;;;5070333;28;20205;-81
2021/06/01 06:52:44;;;;;;;4.80;3.03;;;;;;;;;;5063553;28;20224;-81
2021/06/01 06:55:10;;;;;;;5.85;2.90;;;;;;;;;;5062593;28;20211;-78
2021/06/01 06:57:37;;;;;;;6.70;3.70;;;;;;;;;;5058409;28;20220;-77
2021/06/01 07:00:07;;;;;;;3.40;3.10;;;;;;;;;;5066788;28;20189;-77
2021/06/01 07:02:34;;;;;;;8.77;2.95;;;;;;;;;;5062615;28;20181;-76
2021/06/01 07:05:00;;;;;;;3.75;3.15;;;;;;;;;;5063944;28;20208;-78
2021/06/01 07:07:26;;;;;;;6.03;4.45;;;;;;;;;;5043854;28;20181;-77
2021/06/01 07:09:52;;;;;;;4.97;3.33;;;;;;;;;;5044600;28;20188;-77
2021/06/01 07:12:18;;;;;;;5.55;3.88;;;;;;;;;;5047496;28;20199;-76
2021/06/01 07:14:44;;;;;;;4.80;3.43;;;;;;;;;;5042028;28;20279;-77
2021/06/01 07:17:11;;;;;;;9.32;3.60;;;;;;;;;;5058627;28;20886;-77
2021/06/01 07:19:37;;;;;;;5.60;3.13;;;;;;;;;;5059229;28;20177;-77
2021/06/01 07:22:03;;;;;;;5.28;3.15;;;;;;;;;;5061686;28;20188;-77
2021/06/01 07:24:31;;;;;;;3.95;3.13;;;;;;;;;;5043900;28;20207;-77
2021/06/01 07:26:57;;;;;;;3.70;3.30;;;;;;;;;;5043148;28;20234;-76
2021/06/01 07:29:24;;;;;;;5.27;3.20;;;;;;;;;;5042139;28;20178;-76
2021/06/01 07:31:50;;;;;;;4.50;3.50;;;;;;;;;;5060452;28;20416;-77
2021/06/01 07:34:17;;;;;;;9.15;4.00;;;;;;;;;;5059449;28;20191;-77
2021/06/01 07:36:43;;;;;;;4.38;3.05;;;;;;;;;;5059515;28;20605;-77
2021/06/01 07:39:09;;;;;;;6.35;3.97;;;;;;;;;;5059063;28;20187;-76
2021/06/01 07:41:35;;;;;;;4.80;3.88;;;;;;;;;;5062058;28;20714;-76
2021/06/01 07:44:03;;;;;;;4.77;3.83;;;;;;;;;;5041643;28;20190;-77
2021/06/01 07:46:29;;;;;;;6.85;3.53;;;;;;;;;;5058772;28;20443;-77
2021/06/01 07:48:55;;;;;;;5.80;4.05;;;;;;;;;;5059299;28;20228;-78
2021/06/01 07:51:31;;;;;;;5.93;3.53;;;;;;;;;;5058400;28;20214;-78
2021/06/01 07:54:03;;;;;;;9.35;3.83;;;;;;;;;;5040624;28;20221;-76
2021/06/01 07:56:29;;;;;;;4.22;3.63;;;;;;;;;;5059129;28;20236;-76
2021/06/01 07:58:56;;;;;;;4.00;2.83;;;;;;;;;;5062986;28;20183;-76
2021/06/01 08:01:22;;;;;;;3.90;3.08;;;;;;;;;;5058743;28;20179;-76
2021/06/01 08:03:48;;;;;;;6.53;3.78;;;;;;;;;;5060028;28;20211;-76
2021/06/01 08:06:14;;;;;;;3.70;2.90;;;;;;;;;;5051857;28;20201;-78
2021/06/01 08:08:40;;;;;;;3.60;3.22;;;;;;;;;;5061257;28;20549;-80
2021/06/01 08:11:07;;;;;;;9.75;3.65;;;;;;;;;;5061067;28;20181;-77
2021/06/01 08:13:33;;;;;;;4.32;3.30;;;;;;;;;;5045701;28;20276;-76
2021/06/01 08:16:01;;;;;;;4.28;3.30;;;;;;;;;;5039857;28;20203;-75
2021/06/01 08:18:29;;;;;;;13.90;4.43;;;;;;;;;;5042371;28;20322;-76
2021/06/01 08:23:25;;;;;;;4.47;3.30;;;;;;;;;;5067522;28;20176;-77
2021/06/01 08:25:51;;;;;;;4.95;3.20;;;;;;;;;;5057532;28;20206;-78
2021/06/01 08:28:17;;;;;;;7.13;3.10;;;;;;;;;;5062175;28;20186;-78
2021/06/01 08:30:43;;;;;;;6.82;3.03;;;;;;;;;;5042426;28;20176;-77
2021/06/01 08:33:10;;;;;;;4.93;3.53;;;;;;;;;;5068619;28;20239;-77
2021/06/01 08:35:36;;;;;;;5.95;3.60;;;;;;;;;;5071380;28;20211;-76
2021/06/01 08:38:02;;;;;;;8.60;3.60;;;;;;;;;;5062563;28;20239;-77
2021/06/01 08:40:28;;;;;;;6.30;3.22;;;;;;;;;;5056968;28;20427;-79
2021/06/01 08:42:54;;;;;;;5.95;3.30;;;;;;;;;;5054757;28;20196;-77
2021/06/01 08:45:20;;;;;;;11.82;4.28;;;;;;;;;;5048597;28;20204;-78
2021/06/01 08:47:46;;;;;;;7.60;3.30;;;;;;;;;;5051602;28;20194;-76
2021/06/01 08:50:13;;;;;;;7.45;4.82;;;;;;;;;;5052737;28;20421;-76
2021/06/01 08:52:39;;;;;;;5.60;3.33;;;;;;;;;;5053185;28;20181;-76
2021/06/01 08:55:06;;;;;;;6.93;2.95;;;;;;;;;;5037517;28;20446;-77
2021/06/01 08:57:35;;;;;;;5.53;3.53;;;;;;;;;;5036664;28;20304;-77
2021/06/01 09:00:01;;;;;;;5.40;3.40;;;;;;;;;;5042028;28;20177;-78
2021/06/01 09:02:28;;;;;;;4.97;3.17;;;;;;;;;;5039264;28;21755;-77
2021/06/01 09:05:01;;;;;;;6.83;3.83;;;;;;;;;;5060244;28;20522;-78
2021/06/01 09:13:41;;;;;;;9.80;3.50;;;;;;;;;;5056359;28;20455;-77
2021/06/01 09:21:32;;;;;;;6.37;3.50;;;;;;;;;;5059305;28;20425;-78
2021/06/01 09:24:01;;;;;;;4.27;2.90;;;;;;;;;;5063079;28;20479;-77
2021/06/01 09:26:51;;;;;;;6.60;2.83;;;;;;;;;;5061564;28;20426;-77
2021/06/01 09:29:17;;;;;;;6.33;3.50;;;;;;;;;;5060153;28;20425;-76
2021/06/01 09:31:43;;;;;;;5.23;2.90;;;;;;;;;;5055701;28;20431;-77
2021/06/01 09:34:10;;;;;;;5.37;3.13;;;;;;;;;;5057412;28;20431;-77
2021/06/01 09:36:36;;;;;;;4.60;3.30;;;;;;;;;;5040836;28;20471;-77
2021/06/01 09:39:04;;;;;;;5.30;3.27;;;;;;;;;;5052744;28;20439;-77
2021/06/01 09:41:31;;;;;;;5.10;3.57;;;;;;;;;;5074573;28;20426;-77
2021/06/01 09:44:01;;;;;;;7.57;2.90;;;;;;;;;;5069533;28;20404;-76
2021/06/01 09:46:28;;;;;;;4.00;2.70;;;;;;;;;;5066442;28;20410;-78
2021/06/01 09:48:56;;;;;;;9.67;4.50;;;;;;;;;;5047602;28;20485;-77
2021/06/01 09:51:35;;;;;;;10.60;4.00;;;;;;;;;;5057241;28;20424;-77
2021/06/01 09:54:22;;;;;;;5.90;3.67;;;;;;;;;;5062550;28;20426;-76
2021/06/01 09:56:48;;;;;;;7.53;3.63;;;;;;;;;;5046291;28;20468;-77
2021/06/01 09:59:14;;;;;;;3.47;3.07;;;;;;;;;;5062496;28;20460;-79
2021/06/01 10:01:40;;;;;;;4.63;3.07;;;;;;;;;;5040195;28;20455;-77
2021/06/01 10:04:06;;;;;;;5.17;3.17;;;;;;;;;;5040394;28;20418;-78
2021/06/01 10:06:35;;;;;;;5.13;3.20;;;;;;;;;;5042494;28;20448;-78
2021/06/01 10:09:09;;;;;;;11.03;3.13;;;;;;;;;;5035395;28;20430;-80
2021/06/01 10:11:35;;;;;;;7.40;3.30;;;;;;;;;;5040444;28;20445;-78
2021/06/01 10:14:02;;;;;;;5.40;2.80;;;;;;;;;;5042657;28;20458;-78
2021/06/01 10:16:28;;;;;;;4.90;2.83;;;;;;;;;;5037087;28;20447;-77
2021/06/01 10:18:55;;;;;;;4.10;2.93;;;;;;;;;;5035497;28;20441;-77
2021/06/01 10:21:21;;;;;;;5.03;3.00;;;;;;;;;;5038796;28;20501;-77
2021/06/01 10:23:51;;;;;;;3.97;3.10;;;;;;;;;;5039830;28;20407;-77
2021/06/01 10:26:17;;;;;;;5.20;2.97;;;;;;;;;;5046752;28;20764;-77
2021/06/01 10:28:46;;;;;;;5.50;3.10;;;;;;;;;;5062186;28;20406;-75
2021/06/01 10:31:15;;;;;;;5.07;2.70;;;;;;;;;;5045270;28;20407;-76
2021/06/01 10:33:50;;;;;;;3.83;2.70;;;;;;;;;;5049408;28;20414;-74
2021/06/01 10:53:04;;;;;;;6.90;3.00;;;;;;;;;;4968590;28;20428;-77
2021/06/01 10:56:02;;;;;;;4.80;3.07;;;;;;;;;;4965690;28;20447;-77
2021/06/01 10:58:36;;;;;;;4.80;2.77;;;;;;;;;;4966628;28;20452;-77
2021/06/01 11:04:11;;;;;;;3.10;2.80;;;;;;;;;;4969611;28;20519;-78
2021/06/01 11:06:59;;;;;;;8.13;2.63;;;;;;;;;;4946855;28;20436;-77
2021/06/01 11:09:34;;;;;;;8.40;2.97;;;;;;;;;;4972236;28;20443;-79
2021/06/01 11:12:17;;;;;;;8.63;3.27;;;;;;;;;;4974515;28;20949;-79
2021/06/01 11:14:43;;;;;;;7.93;3.77;;;;;;;;;;4971298;28;20815;-77
2021/06/01 11:17:09;;;;;;;4.67;3.30;;;;;;;;;;4973398;28;20430;-81
2021/06/01 11:19:52;;;;;;;5.80;3.00;;;;;;;;;;4971631;28;20557;-80
2021/06/01 11:22:24;;;;;;;3.20;2.90;;;;;;;;;;4962046;28;20480;-80
2021/06/01 11:35:55;;;;;;;3.73;3.00;;;;;;;;;;5041596;28;20424;-77
2021/06/01 11:38:27;;;;;;;3.13;2.67;;;;;;;;;;5051680;28;20514;-78
2021/06/01 11:43:39;;;;;;;4.93;2.87;;;;;;;;;;5040643;28;20443;-78
2021/06/01 11:46:16;;;;;;;3.63;2.90;;;;;;;;;;5040907;28;20472;-77
2021/06/01 11:51:22;;;;;;;2.60;2.40;;;;;;;;;;5038581;28;20465;-77
2021/06/01 11:53:49;;;;;;;3.20;2.90;;;;;;;;;;5045386;28;20439;-78
2021/06/01 11:56:19;;;;;;;3.13;2.90;;;;;;;;;;5066380;28;20476;-77
2021/06/01 12:04:38;;;;;;;2.90;2.70;;;;;;;;;;4976931;28;21018;-80
2021/06/01 12:12:47;;;;;;;3.40;3.20;;;;;;;;;;4978149;28;20536;-80
2021/06/01 12:18:01;;;;;;;3.10;2.90;;;;;;;;;;4977997;28;20439;-78
2021/06/01 12:20:27;;;;;;;3.30;3.00;;;;;;;;;;4990686;28;20973;-81
2021/06/01 12:22:53;;;;;;;4.10;2.83;;;;;;;;;;4987162;28;20582;-78
2021/06/01 12:25:20;;;;;;;2.60;2.40;;;;;;;;;;4984162;28;20466;-77
2021/06/01 12:28:00;;;;;;;4.03;2.60;;;;;;;;;;4985289;28;20443;-79
2021/06/01 12:33:25;;;;;;;3.07;2.47;;;;;;;;;;4944275;29;20436;-76
2021/06/01 12:41:58;;;;;;;5.13;3.03;;;;;;;;;;4986358;28;20531;-77
2021/06/01 12:44:34;;;;;;;3.13;2.93;;;;;;;;;;4970767;28;20462;-77
2021/06/01 12:47:47;;;;;;;2.80;2.70;;;;;;;;;;4987568;28;20489;-78
2021/06/01 13:05:28;;;;;;;3.40;3.10;;;;;;;;;;4983955;28;20485;-79
2021/06/01 13:09:41;;;;;;;3.03;2.83;;;;;;;;;;5010873;28;20468;-76
2021/06/01 13:12:21;;;;;;;3.60;3.30;;;;;;;;;;5021576;28;20452;-76
2021/06/01 13:37:13;;;;;;;2.90;2.60;;;;;;;;;;5025350;28;20542;-77
2021/06/01 13:39:45;;;;;;;2.67;2.20;;;;;;;;;;5044944;28;20471;-78
2021/06/01 13:48:00;;;;;;;3.20;2.37;;;;;;;;;;5038876;28;20436;-77
2021/06/01 13:50:35;;;;;;;2.87;2.67;;;;;;;;;;5044486;28;20423;-76
2021/06/01 13:55:07;;;;;;;2.40;2.20;;;;;;;;;;5052731;28;20418;-77
2021/06/01 13:56:04;;;;;;;3.30;3.00;;;;;;;;;;5052111;28;20458;-77
2021/06/01 13:58:42;;;;;;;4.70;2.43;;;;;;;;;;5045046;28;20443;-77
2021/06/01 14:09:42;;;;;;;3.03;2.60;;;;;;;;;;5061704;28;20453;-78
2021/06/01 15:04:56;;;;;;;3.63;2.83;;;;;;;;;;4874541;29;20498;-77
2021/06/01 15:10:16;;;;;;;3.07;2.47;;;;;;;;;;4907164;29;20459;-76
2021/06/01 16:31:46;;;;;;;3.20;2.27;;;;;;;;;;4851285;29;20420;-76
2021/06/01 17:07:10;;;;;;;2.93;2.40;;;;;;;;;;4999409;28;20446;-74
2021/06/01 17:12:28;;;;;;;2.50;2.27;;;;;;;;;;5047968;28;20503;-75
2021/06/01 17:14:55;;;;;;;2.97;2.67;;;;;;;;;;5051184;28;20405;-78
2021/06/01 17:17:21;;;;;;;4.40;2.80;;;;;;;;;;5051527;28;20427;-75
2021/06/01 17:20:04;;;;;;;6.27;2.97;;;;;;;;;;5069012;28;20421;-75
2021/06/01 17:22:42;;;;;;;3.13;2.90;;;;;;;;;;5064954;28;20503;-76
2021/06/01 17:35:44;;;;;;;3.40;2.53;;;;;;;;;;5063941;28;20443;-75
2021/06/01 17:38:12;;;;;;;2.37;2.17;;;;;;;;;;5063467;28;20398;-75
2021/06/01 17:40:41;;;;;;;3.23;2.60;;;;;;;;;;5064250;28;20428;-75
2021/06/01 17:43:10;;;;;;;3.10;2.50;;;;;;;;;;5057910;28;20481;-77
2021/06/01 17:45:45;;;;;;;2.83;2.43;;;;;;;;;;5062893;28;20470;-75
2021/06/01 17:48:27;;;;;;;3.37;2.57;;;;;;;;;;5063037;28;20430;-81
2021/06/01 17:50:56;;;;;;;2.57;2.37;;;;;;;;;;5039491;28;20535;-75
2021/06/01 17:53:24;;;;;;;3.30;2.80;;;;;;;;;;5076137;28;20429;-76
2021/06/01 17:55:54;;;;;;;2.50;2.20;;;;;;;;;;5068018;28;20470;-79
2021/06/01 17:58:24;;;;;;;2.40;2.20;;;;;;;;;;5044046;28;20457;-79
2021/06/01 18:00:50;;;;;;;2.97;2.33;;;;;;;;;;5038326;28;20793;-78
2021/06/01 18:03:18;;;;;;;2.70;2.13;;;;;;;;;;5044855;28;20472;-79
2021/06/01 18:05:46;;;;;;;3.20;2.57;;;;;;;;;;5041201;28;20467;-78
2021/06/01 18:14:10;;;;;;;2.90;2.70;;;;;;;;;;5046031;28;20448;-78
2021/06/01 18:42:01;;;;;;;3.90;2.63;;;;;;;;;;5051834;28;20414;-78
2021/06/01 19:23:24;;;;;;;3.23;2.93;;;;;;;;;;4966292;28;20420;-77
2021/06/01 19:25:39;;;;;;;3.40;3.10;;;;;;;;;;4961862;28;20445;-77
2021/06/01 19:49:54;;;;;;;7.50;3.77;;;;;;;;;;5039186;28;20382;-77
2021/06/01 19:50:00;;;;;;;4.10;3.43;;;;;;;;;;5042309;28;20399;-76
2021/06/01 19:52:27;;;;;;;3.10;2.80;;;;;;;;;;5042100;28;20434;-76
2021/06/01 19:54:54;;;;;;;3.80;3.50;;;;;;;;;;5042702;28;20409;-77
2021/06/01 19:57:21;;;;;;;4.70;3.20;;;;;;;;;;5045448;28;20473;-76
2021/06/01 19:59:47;;;;;;;4.60;4.20;;;;;;;;;;5046010;28;20433;-76
2021/06/01 20:02:17;;;;;;;5.20;3.30;;;;;;;;;;5048994;28;20502;-76
2021/06/01 20:04:44;;;;;;;4.80;4.03;;;;;;;;;;5045163;28;20422;-77
2021/06/01 20:07:11;;;;;;;4.80;3.20;;;;;;;;;;5037022;28;20427;-77
2021/06/01 20:09:37;;;;;;;4.03;3.63;;;;;;;;;;5045175;28;21013;-77
2021/06/01 20:12:04;;;;;;;3.40;3.17;;;;;;;;;;5032764;28;20453;-77
2021/06/01 20:14:30;;;;;;;8.03;3.27;;;;;;;;;;5036139;28;20407;-77
2021/06/01 20:16:56;;;;;;;3.80;3.50;;;;;;;;;;5038171;28;20431;-76
2021/06/01 20:19:23;;;;;;;3.50;3.30;;;;;;;;;;5034334;28;20451;-76
2021/06/01 20:21:52;;;;;;;4.03;3.60;;;;;;;;;;5031382;28;20448;-77
2021/06/01 20:24:19;;;;;;;7.53;3.83;;;;;;;;;;5024612;28;20437;-77
2021/06/01 20:26:45;;;;;;;3.80;3.50;;;;;;;;;;5042762;28;20860;-77
2021/06/01 20:29:19;;;;;;;4.10;3.80;;;;;;;;;;5027182;28;20940;-77
2021/06/01 20:31:56;;;;;;;4.03;3.67;;;;;;;;;;5043332;28;20430;-78
2021/06/01 20:34:22;;;;;;;7.30;3.70;;;;;;;;;;5038724;28;20459;-77
2021/06/01 20:36:48;;;;;;;3.47;3.20;;;;;;;;;;5042320;28;20448;-77
2021/06/01 20:39:14;;;;;;;5.20;3.70;;;;;;;;;;5038700;28;20425;-77
2021/06/01 20:41:42;;;;;;;3.57;3.37;;;;;;;;;;5043180;28;20440;-77
2021/06/01 20:44:08;;;;;;;5.47;4.17;;;;;;;;;;5044011;28;20471;-77
2021/06/01 20:46:34;;;;;;;3.63;3.33;;;;;;;;;;5038566;28;20464;-77
2021/06/01 20:49:00;;;;;;;4.27;3.87;;;;;;;;;;5042828;28;20530;-77
2021/06/01 20:51:27;;;;;;;3.97;3.60;;;;;;;;;;5042554;28;20539;-77
2021/06/01 20:53:56;;;;;;;5.40;4.27;;;;;;;;;;5043713;28;20481;-77
2021/06/01 20:56:25;;;;;;;4.30;3.83;;;;;;;;;;5055980;28;20462;-77
2021/06/01 20:58:52;;;;;;;4.70;3.83;;;;;;;;;;5054302;28;20238;-77
2021/06/01 21:01:18;;;;;;;3.50;3.30;;;;;;;;;;5048017;28;20642;-77
2021/06/01 21:03:46;;;;;;;4.00;3.70;;;;;;;;;;5066654;28;20184;-77
2021/06/01 21:06:12;;;;;;;3.22;3.03;;;;;;;;;;5054327;28;20193;-77
2021/06/01 21:08:39;;;;;;;4.47;4.07;;;;;;;;;;5066381;28;20199;-76
2021/06/01 21:11:07;;;;;;;4.30;2.72;;;;;;;;;;5067439;28;20172;-77
2021/06/01 21:13:33;;;;;;;4.20;3.90;;;;;;;;;;5045710;28;20185;-77
2021/06/01 21:15:59;;;;;;;4.23;3.83;;;;;;;;;;5045979;28;20215;-76
2021/06/01 21:18:25;;;;;;;8.07;4.10;;;;;;;;;;5066484;28;20439;-77
2021/06/01 21:20:51;;;;;;;4.18;3.58;;;;;;;;;;5047676;28;20439;-76
2021/06/01 21:23:18;;;;;;;3.90;3.60;;;;;;;;;;5049477;28;20207;-76
2021/06/01 21:25:44;;;;;;;4.47;4.07;;;;;;;;;;5042497;28;20198;-77
2021/06/01 21:28:10;;;;;;;5.20;3.50;;;;;;;;;;5061370;28;20200;-77
2021/06/01 21:30:37;;;;;;;6.63;4.10;;;;;;;;;;5065761;28;20194;-76
2021/06/01 21:33:06;;;;;;;4.75;4.05;;;;;;;;;;5066647;28;20179;-76
2021/06/01 21:35:33;;;;;;;4.13;3.70;;;;;;;;;;5047729;28;20183;-77
2021/06/01 21:38:04;;;;;;;4.72;4.32;;;;;;;;;;5043519;28;20252;-76